Time;durP1;ratioP1;P1;durP2;ratioP2;P2;SDS_P1;SDS_P2;PMS_P1;PMS_P2;Temp;Humidity;BMP_temperature;BMP_pressure;BME280_temperature;BME280_humidity;BME280_pressure;Samples;Min_cycle;Max_cycle;Signal;HPM_P1;HPM_P2
2019/04/13 00:00:56;;;;;;;19.3;16.3;;;;;;;4.94;55.32031;961.9846;;;;
2019/04/13 00:04:07;;;;;;;18.7;15.8;;;;;;;4.9;55.64453;961.9695;;;;
2019/04/13 00:07:17;;;;;;;19;15.2;;;;;;;5.18;55.50977;961.9875;;;;
2019/04/13 00:10:38;;;;;;;19.1;15.8;;;;;;;5.17;55.15625;962.0306;;;;
2019/04/13 00:13:49;;;;;;;19.9;16.3;;;;;;;5.17;54.41699;962.0524;;;;
2019/04/13 00:16:59;;;;;;;23.4;16.9;;;;;;;5.13;55.11816;962.0114;;;;
2019/04/13 00:20:09;;;;;;;19.3;16;;;;;;;5.1;55.55664;962.0003;;;;
2019/04/13 00:23:19;;;;;;;20.9;17.3;;;;;;;5.12;56.72949;962.0425;;;;
2019/04/13 00:26:28;;;;;;;22.4;17.7;;;;;;;5.03;54.92285;962.0094;;;;
2019/04/13 00:29:39;;;;;;;21.4;18.1;;;;;;;5.09;54.62305;962.0014;;;;
2019/04/13 00:32:49;;;;;;;19.8;17.4;;;;;;;5.13;55.78809;961.9215;;;;
2019/04/13 00:35:59;;;;;;;20.1;17.2;;;;;;;5.15;55.3125;961.8772;;;;
2019/04/13 00:39:09;;;;;;;22.6;17.7;;;;;;;5.16;55.59766;961.9325;;;;
2019/04/13 00:42:19;;;;;;;21.3;17;;;;;;;5.14;55.01563;961.9074;;;;
2019/04/13 00:45:29;;;;;;;21.7;17.2;;;;;;;5.18;56.2041;961.8577;;;;
2019/04/13 00:48:39;;;;;;;20.2;17.6;;;;;;;5.09;55.04297;961.8334;;;;
2019/04/13 00:51:50;;;;;;;22;17.8;;;;;;;4.92;55.7832;961.7745;;;;
2019/04/13 00:55:00;;;;;;;20.4;18.1;;;;;;;4.98;55.22266;961.78;;;;
2019/04/13 00:58:10;;;;;;;21.5;17.9;;;;;;;4.87;55.61719;961.8035;;;;
2019/04/13 01:01:20;;;;;;;23.5;18.8;;;;;;;4.91;55.77051;961.8484;;;;
2019/04/13 01:04:30;;;;;;;22.8;19;;;;;;;4.9;55.98438;961.8105;;;;
2019/04/13 01:07:40;;;;;;;22.8;19.1;;;;;;;4.84;55.96582;961.8483;;;;
2019/04/13 01:10:50;;;;;;;22.4;19.2;;;;;;;4.85;56.31934;961.861;;;;
2019/04/13 01:14:00;;;;;;;23.3;19.4;;;;;;;4.81;57.15332;961.8201;;;;
2019/04/13 01:17:10;;;;;;;21.8;19.2;;;;;;;4.81;56.79004;961.7902;;;;
2019/04/13 01:20:20;;;;;;;21.6;19.2;;;;;;;4.8;57.06152;961.7649;;;;
2019/04/13 01:23:30;;;;;;;24.7;20;;;;;;;4.74;56.32813;961.6953;;;;
2019/04/13 01:26:40;;;;;;;22.7;19.2;;;;;;;4.8;57.37988;961.7216;;;;
2019/04/13 01:29:51;;;;;;;23.4;19.3;;;;;;;4.81;56.58594;961.7039;;;;
2019/04/13 01:33:01;;;;;;;24.2;20;;;;;;;4.81;57.09668;961.6564;;;;
2019/04/13 01:36:11;;;;;;;23;19.1;;;;;;;4.86;56.9209;961.6625;;;;
2019/04/13 01:39:21;;;;;;;21.7;18.9;;;;;;;4.85;56.98828;961.6719;;;;
2019/04/13 01:42:31;;;;;;;22.5;19;;;;;;;4.79;56.74316;961.6404;;;;
2019/04/13 01:45:41;;;;;;;24.7;20.4;;;;;;;4.69;58.11523;961.6035;;;;
2019/04/13 01:48:51;;;;;;;25;20.3;;;;;;;4.57;57.65625;961.5804;;;;
2019/04/13 01:52:01;;;;;;;21.8;19.4;;;;;;;4.66;58.06543;961.5449;;;;
2019/04/13 01:55:11;;;;;;;22.9;19.9;;;;;;;4.62;57.88867;961.4962;;;;
2019/04/13 01:58:21;;;;;;;23.7;20.7;;;;;;;4.53;58.00293;961.5012;;;;
2019/04/13 02:02:37;;;;;;;23.6;19.9;;;;;;;4.5;57.77148;961.4772;;;;
2019/04/13 02:09:13;;;;;;;25.2;20.4;;;;;;;4.59;58.33887;961.5925;;;;
2019/04/13 02:12:23;;;;;;;23.7;20.4;;;;;;;4.68;57.83984;961.6474;;;;
2019/04/13 02:15:33;;;;;;;24.4;21.3;;;;;;;4.72;58.02832;961.6749;;;;
2019/04/13 02:18:43;;;;;;;26.9;21.4;;;;;;;4.7;58.5127;961.6548;;;;
2019/04/13 02:21:53;;;;;;;26.5;21.9;;;;;;;4.65;59.18652;961.6322;;;;
2019/04/13 02:25:03;;;;;;;25.7;21.4;;;;;;;4.72;58.23242;961.662;;;;
2019/04/13 02:28:13;;;;;;;26.3;21.4;;;;;;;4.7;58.41113;961.5862;;;;
2019/04/13 02:31:23;;;;;;;27.1;22.1;;;;;;;4.58;58.9502;961.6664;;;;
2019/04/13 02:34:33;;;;;;;29.3;22.5;;;;;;;4.61;59.08984;961.6261;;;;
2019/04/13 02:37:43;;;;;;;26.4;22.6;;;;;;;4.57;60.42383;961.5809;;;;
2019/04/13 02:40:53;;;;;;;26.9;23.4;;;;;;;4.46;60.4541;961.6133;;;;
2019/04/13 02:44:03;;;;;;;28.3;23.6;;;;;;;4.31;60.89746;961.5835;;;;
2019/04/13 02:47:13;;;;;;;29.7;24;;;;;;;4.33;60.65137;961.5306;;;;
2019/04/13 02:50:24;;;;;;;26.8;23.5;;;;;;;4.53;58.48828;961.5017;;;;
2019/04/13 02:53:34;;;;;;;28.8;23.9;;;;;;;4.42;58.9043;961.4177;;;;
2019/04/13 02:56:44;;;;;;;28.5;23.7;;;;;;;4.32;58.8125;961.4796;;;;
2019/04/13 02:59:53;;;;;;;27.2;23.1;;;;;;;4.15;60.30859;961.4981;;;;
2019/04/13 03:03:03;;;;;;;29.1;23.7;;;;;;;4.29;59.44238;961.486;;;;
2019/04/13 03:06:13;;;;;;;28.1;23.4;;;;;;;4.31;59.26465;961.4545;;;;
2019/04/13 03:09:23;;;;;;;29;24.3;;;;;;;4.3;58.91211;961.4333;;;;
2019/04/13 03:12:33;;;;;;;28.4;23.1;;;;;;;4.29;59.24902;961.4214;;;;
2019/04/13 03:22:22;;;;;;;30.4;24.8;;;;;;;4.15;59.43555;961.399;;;;
2019/04/13 03:25:32;;;;;;;33.2;24.6;;;;;;;4.17;60.12988;961.3895;;;;
2019/04/13 03:28:42;;;;;;;32.3;25.1;;;;;;;4.07;61.02344;961.3825;;;;
2019/04/13 03:31:52;;;;;;;31;24.9;;;;;;;4.14;60.09082;961.4001;;;;
2019/04/13 03:35:03;;;;;;;30.1;25.6;;;;;;;4.12;59.57813;961.3839;;;;
2019/04/13 03:38:13;;;;;;;32.5;25.8;;;;;;;4.11;60.01953;961.3972;;;;
2019/04/13 03:41:23;;;;;;;30.8;26.1;;;;;;;4.05;59.89648;961.2759;;;;
2019/04/13 03:44:33;;;;;;;31.6;26.1;;;;;;;4.05;60.04395;961.2894;;;;
2019/04/13 03:47:43;;;;;;;29;25.2;;;;;;;3.97;60.65625;961.3066;;;;
2019/04/13 03:50:53;;;;;;;33.6;25.2;;;;;;;3.84;61.00098;961.3143;;;;
2019/04/13 03:54:03;;;;;;;35.2;25.1;;;;;;;4.01;58.97363;961.2785;;;;
2019/04/13 03:57:13;;;;;;;31.8;25.7;;;;;;;3.93;60.08301;961.2363;;;;
2019/04/13 04:00:23;;;;;;;32;25;;;;;;;3.77;60.50391;961.1895;;;;
2019/04/13 04:06:27;;;;;;;31.6;25.7;;;;;;;3.72;60.39551;961.162;;;;
2019/04/13 04:09:37;;;;;;;33.2;26.4;;;;;;;3.61;60.91211;961.1036;;;;
2019/04/13 04:12:47;;;;;;;31.6;25.7;;;;;;;3.69;60.82031;961.0823;;;;
2019/04/13 04:15:58;;;;;;;30.8;25.3;;;;;;;3.66;60.60059;961.1099;;;;
2019/04/13 04:19:08;;;;;;;31;25.3;;;;;;;3.64;60.79102;961.1019;;;;
2019/04/13 04:22:18;;;;;;;31.4;26.4;;;;;;;3.66;60.39746;961.1311;;;;
2019/04/13 04:25:28;;;;;;;31.2;26.1;;;;;;;3.53;61.03516;961.0999;;;;
2019/04/13 04:28:38;;;;;;;32.1;26.7;;;;;;;3.5;60.79395;961.0759;;;;
2019/04/13 04:31:48;;;;;;;30.5;25.3;;;;;;;3.65;61.59668;961.0887;;;;
2019/04/13 04:34:58;;;;;;;33;26;;;;;;;3.63;60.34766;961.0684;;;;
2019/04/13 04:38:08;;;;;;;32.3;26.3;;;;;;;3.61;61.35254;961.0438;;;;
2019/04/13 04:41:19;;;;;;;33.1;26.8;;;;;;;3.48;61.87793;961.0853;;;;
2019/04/13 04:44:29;;;;;;;30.2;25.6;;;;;;;3.6;61.26172;961.1603;;;;
2019/04/13 04:47:39;;;;;;;33.5;27;;;;;;;3.61;61.44336;961.1469;;;;
2019/04/13 04:50:49;;;;;;;32.1;26.4;;;;;;;3.55;62.33008;961.0989;;;;
2019/04/13 04:53:59;;;;;;;32.3;26.4;;;;;;;3.68;60.85352;961.0485;;;;
2019/04/13 04:57:09;;;;;;;33.4;26.6;;;;;;;3.61;61.64746;961.0696;;;;
2019/04/13 05:00:20;;;;;;;32.8;25.9;;;;;;;3.64;62.47754;961.0678;;;;
2019/04/13 05:03:30;;;;;;;32.9;26;;;;;;;3.49;61.74316;961.0936;;;;
2019/04/13 05:06:40;;;;;;;30.1;25.4;;;;;;;3.49;61.84473;961.0977;;;;
2019/04/13 05:09:50;;;;;;;33.4;27.1;;;;;;;3.47;62.63477;961.155;;;;
2019/04/13 05:13:00;;;;;;;33.4;27;;;;;;;3.59;62.36816;961.1481;;;;
2019/04/13 05:16:10;;;;;;;32;26;;;;;;;3.6;61.94141;961.1088;;;;
2019/04/13 05:19:20;;;;;;;29.4;24.5;;;;;;;3.75;63.44629;961.1473;;;;
2019/04/13 05:22:30;;;;;;;32.7;26.1;;;;;;;3.59;62.48145;961.1739;;;;
2019/04/13 05:25:40;;;;;;;32.4;26.6;;;;;;;3.62;62.52148;961.1848;;;;
2019/04/13 05:28:51;;;;;;;32.2;25.9;;;;;;;3.66;62.55957;961.243;;;;
2019/04/13 05:32:01;;;;;;;31;25.5;;;;;;;3.58;62.88867;961.1786;;;;
2019/04/13 05:35:11;;;;;;;31.9;26.2;;;;;;;3.73;61.60742;961.2347;;;;
2019/04/13 05:38:21;;;;;;;31.5;25.3;;;;;;;3.66;62.25391;961.2687;;;;
2019/04/13 05:41:31;;;;;;;32;25.5;;;;;;;3.8;61.31152;961.2436;;;;
2019/04/13 05:44:41;;;;;;;32.1;25.4;;;;;;;3.84;61.78223;961.3354;;;;
2019/04/13 05:47:51;;;;;;;31;25.6;;;;;;;3.81;62.84375;961.2686;;;;
2019/04/13 05:51:01;;;;;;;31.8;25.2;;;;;;;3.82;61.15723;961.2892;;;;
2019/04/13 05:54:11;;;;;;;30.5;24.8;;;;;;;3.91;62.21191;961.2886;;;;
2019/04/13 05:57:21;;;;;;;30.9;25.4;;;;;;;3.85;61.0127;961.3783;;;;
2019/04/13 06:00:31;;;;;;;31.9;25.8;;;;;;;3.93;60.97949;961.3564;;;;
2019/04/13 06:03:41;;;;;;;31.3;25.1;;;;;;;4.01;61.80762;961.3946;;;;
2019/04/13 06:06:52;;;;;;;30.1;25.2;;;;;;;3.97;61.05273;961.3154;;;;
2019/04/13 06:10:02;;;;;;;29.1;24.4;;;;;;;4.05;61.29102;961.3281;;;;
2019/04/13 06:13:13;;;;;;;31.4;25.1;;;;;;;4.23;60.93262;961.3642;;;;
2019/04/13 06:16:23;;;;;;;29.3;23.7;;;;;;;4.36;60.37207;961.4601;;;;
2019/04/13 06:19:33;;;;;;;28.2;23.8;;;;;;;4.3;60.13672;961.3992;;;;
2019/04/13 06:22:43;;;;;;;30.4;24.6;;;;;;;4.35;60.31543;961.4689;;;;
2019/04/13 06:25:53;;;;;;;30.3;24.7;;;;;;;4.28;59.67969;961.4003;;;;
2019/04/13 06:29:03;;;;;;;28.7;23.6;;;;;;;4.44;58.48828;961.4293;;;;
2019/04/13 06:35:41;;;;;;;26.4;22.3;;;;;;;4.58;57.92871;961.4211;;;;
2019/04/13 06:38:51;;;;;;;27.8;22.5;;;;;;;4.61;57.25195;961.4363;;;;
2019/04/13 06:42:01;;;;;;;29.9;22.9;;;;;;;4.78;57.39941;961.4517;;;;
2019/04/13 06:45:11;;;;;;;26.9;22.8;;;;;;;4.83;56.15625;961.3802;;;;
2019/04/13 06:48:21;;;;;;;26;22.6;;;;;;;5.03;57.33105;961.3762;;;;
2019/04/13 06:51:32;;;;;;;25.4;21.8;;;;;;;5.14;57.53906;961.3647;;;;
2019/04/13 06:54:42;;;;;;;28;21.8;;;;;;;5.37;53.97754;961.3074;;;;
2019/04/13 06:57:52;;;;;;;25.5;20.9;;;;;;;5.4;53.42383;961.3741;;;;
2019/04/13 07:01:02;;;;;;;26.2;20.9;;;;;;;5.5;53.35645;961.3376;;;;
2019/04/13 07:04:12;;;;;;;24.2;19.8;;;;;;;5.41;50.61523;961.283;;;;
2019/04/13 07:07:33;;;;;;;22.9;18.9;;;;;;;5.33;49.07129;961.3275;;;;
2019/04/13 07:11:09;;;;;;;23.7;19.2;;;;;;;5.3;49.51172;961.2906;;;;
2019/04/13 07:14:19;;;;;;;22.6;18.8;;;;;;;5.23;49.20801;961.2989;;;;
2019/04/13 07:17:33;;;;;;;25.7;20;;;;;;;5.26;49.94922;961.2411;;;;
2019/04/13 07:20:43;;;;;;;24.2;19.8;;;;;;;5.37;49.74707;961.2639;;;;
2019/04/13 07:23:53;;;;;;;24;19.5;;;;;;;5.56;50.05371;961.2864;;;;
2019/04/13 07:27:04;;;;;;;24.7;19.8;;;;;;;5.59;48.48633;961.2928;;;;
2019/04/13 07:30:14;;;;;;;23.5;19.4;;;;;;;5.5;48.7959;961.3289;;;;
2019/04/13 07:33:24;;;;;;;24.4;19.2;;;;;;;5.72;48.44434;961.3411;;;;
2019/04/13 07:36:34;;;;;;;23;18.5;;;;;;;5.88;48.07617;961.425;;;;
2019/04/13 07:39:44;;;;;;;21.9;18.3;;;;;;;5.84;46.86426;961.3976;;;;
2019/04/13 07:42:54;;;;;;;23.2;18.9;;;;;;;5.97;48.0752;961.4451;;;;
2019/04/13 07:46:17;;;;;;;20.5;18.3;;;;;;;6.24;46.64648;961.3756;;;;
2019/04/13 07:52:37;;;;;;;20.9;18.2;;;;;;;6.42;44.86523;961.4238;;;;
2019/04/13 07:55:47;;;;;;;22;18.2;;;;;;;6.44;45.37988;961.4487;;;;
2019/04/13 07:58:57;;;;;;;22.5;18.8;;;;;;;6.48;43.99316;961.4202;;;;
2019/04/13 08:02:07;;;;;;;22.4;18.4;;;;;;;6.48;44.89453;961.3807;;;;
2019/04/13 08:05:17;;;;;;;20.4;17.3;;;;;;;6.48;45.00879;961.4455;;;;
2019/04/13 08:08:27;;;;;;;21.8;17;;;;;;;6.55;45.16309;961.3766;;;;
2019/04/13 08:11:37;;;;;;;22;18.3;;;;;;;6.56;44.53809;961.4274;;;;
2019/04/13 08:14:47;;;;;;;22.9;17.4;;;;;;;6.73;45.08008;961.3856;;;;
2019/04/13 08:17:57;;;;;;;24.3;18.5;;;;;;;6.8;45.17871;961.3811;;;;
2019/04/13 08:21:07;;;;;;;19.4;16.7;;;;;;;6.96;42.12598;961.3261;;;;
2019/04/13 08:24:17;;;;;;;21.8;17.6;;;;;;;6.91;42.71387;961.2738;;;;
2019/04/13 08:27:27;;;;;;;21.5;17.3;;;;;;;6.83;42.58008;961.3011;;;;
2019/04/13 08:30:37;;;;;;;22.3;18.5;;;;;;;6.79;41.97168;961.2776;;;;
2019/04/13 08:33:47;;;;;;;22.5;16.9;;;;;;;6.91;41.7666;961.2564;;;;
2019/04/13 08:36:57;;;;;;;21.4;16.9;;;;;;;6.99;42.26563;961.2203;;;;
2019/04/13 08:40:07;;;;;;;21.4;17.2;;;;;;;7.01;41.86719;961.1504;;;;
2019/04/13 08:43:17;;;;;;;21.2;17.4;;;;;;;6.98;41.89844;961.1437;;;;
2019/04/13 08:46:26;;;;;;;22.5;18.4;;;;;;;7.08;41.6123;961.1489;;;;
2019/04/13 08:49:36;;;;;;;22.6;17.9;;;;;;;7.12;41.23926;961.1767;;;;
2019/04/13 08:52:46;;;;;;;21;16.9;;;;;;;7.4;41.68945;961.1478;;;;
2019/04/13 08:55:56;;;;;;;21.1;16.8;;;;;;;7.37;41.70898;961.1288;;;;
2019/04/13 08:59:06;;;;;;;22.2;17.6;;;;;;;7.45;41.70508;961.1099;;;;
2019/04/13 09:02:16;;;;;;;21.7;18;;;;;;;7.59;41.83301;961.0566;;;;
2019/04/13 09:05:26;;;;;;;21.5;17.5;;;;;;;7.7;41.76367;961.0871;;;;
2019/04/13 09:08:36;;;;;;;21.3;17.8;;;;;;;7.77;40.95898;961.0259;;;;
2019/04/13 09:11:46;;;;;;;21.8;18.5;;;;;;;7.55;41.38379;961.0424;;;;
2019/04/13 09:14:56;;;;;;;24;18.6;;;;;;;7.81;42.02637;961.0663;;;;
2019/04/13 09:18:13;;;;;;;23.8;18.3;;;;;;;7.73;40.08594;960.9988;;;;
2019/04/13 09:21:31;;;;;;;23;17.6;;;;;;;7.99;40.51074;960.9146;;;;
2019/04/13 09:24:41;;;;;;;19.7;16.8;;;;;;;8;40.23633;960.957;;;;
2019/04/13 09:27:51;;;;;;;22.1;17.9;;;;;;;8.04;41.21289;960.8979;;;;
2019/04/13 09:31:01;;;;;;;23;18.5;;;;;;;7.82;40.00391;960.9182;;;;
2019/04/13 09:34:11;;;;;;;21.6;18.5;;;;;;;7.97;40.15527;960.8636;;;;
2019/04/13 09:37:20;;;;;;;24.2;18.4;;;;;;;7.93;41.22559;960.8024;;;;
2019/04/13 09:40:31;;;;;;;23.3;18.2;;;;;;;8.13;41.42773;960.7653;;;;
2019/04/13 09:43:52;;;;;;;22;17.6;;;;;;;8.28;40.86914;960.7542;;;;
2019/04/13 09:47:06;;;;;;;20.3;17.6;;;;;;;8.54;40.04688;960.6827;;;;
2019/04/13 09:50:16;;;;;;;24.6;18.6;;;;;;;8.49;41.21094;960.617;;;;
2019/04/13 09:53:25;;;;;;;22.9;18.2;;;;;;;8.82;39.68359;960.6385;;;;
2019/04/13 09:56:35;;;;;;;22.1;17.9;;;;;;;8.74;39.57324;960.5892;;;;
2019/04/13 09:59:45;;;;;;;23.1;18.1;;;;;;;8.63;39.20703;960.5544;;;;
2019/04/13 10:02:55;;;;;;;21;18.7;;;;;;;8.62;39.81445;960.4942;;;;
2019/04/13 10:06:05;;;;;;;22.1;18.5;;;;;;;8.58;38.66406;960.4498;;;;
2019/04/13 10:09:15;;;;;;;23;18.8;;;;;;;8.4;38.96875;960.5243;;;;
2019/04/13 10:12:36;;;;;;;22.5;18.5;;;;;;;8.69;39.59082;960.4539;;;;
2019/04/13 10:16:05;;;;;;;24.3;18.7;;;;;;;8.82;39.29297;960.4661;;;;
2019/04/13 10:19:16;;;;;;;22.7;19;;;;;;;8.79;38.23633;960.4633;;;;
2019/04/13 10:22:25;;;;;;;22.8;18.3;;;;;;;8.93;39.21191;960.3571;;;;
2019/04/13 10:25:35;;;;;;;23.8;18.9;;;;;;;9.24;38.31055;960.3667;;;;
2019/04/13 10:28:45;;;;;;;21;18.5;;;;;;;9.35;38.55078;960.3273;;;;
2019/04/13 10:31:55;;;;;;;22.3;18.5;;;;;;;9.38;37.42871;960.3597;;;;
2019/04/13 10:35:05;;;;;;;21.8;18.7;;;;;;;9.45;37.82324;960.2156;;;;
2019/04/13 10:38:15;;;;;;;22.9;19;;;;;;;9.48;37.30957;960.3344;;;;
2019/04/13 10:41:25;;;;;;;21.6;18.5;;;;;;;9.64;37.99023;960.274;;;;
2019/04/13 10:44:45;;;;;;;23;19.3;;;;;;;10.02;36.62109;960.2378;;;;
2019/04/13 10:48:03;;;;;;;23.8;19.4;;;;;;;10.23;37.61621;960.2156;;;;
2019/04/13 10:51:23;;;;;;;23.8;18.8;;;;;;;10.39;36.69922;960.1192;;;;
2019/04/13 10:54:33;;;;;;;22.5;18.9;;;;;;;10.54;35.67578;960.1459;;;;
2019/04/13 10:57:43;;;;;;;21.5;18.5;;;;;;;10.99;35.6543;960.1855;;;;
2019/04/13 11:00:53;;;;;;;23.2;18.6;;;;;;;10.65;36.5127;960.0932;;;;
2019/04/13 11:04:03;;;;;;;21.4;18.8;;;;;;;10.1;37.22656;960.0353;;;;
2019/04/13 11:07:12;;;;;;;24;19.6;;;;;;;9.95;37.24707;959.9963;;;;
2019/04/13 11:10:22;;;;;;;21.4;18.5;;;;;;;10.4;35.87109;959.9059;;;;
2019/04/13 11:13:32;;;;;;;22.4;19;;;;;;;11.18;35.68262;959.8674;;;;
2019/04/13 11:16:46;;;;;;;22.4;19;;;;;;;11.35;36.36426;959.9706;;;;
2019/04/13 11:19:56;;;;;;;21.3;18;;;;;;;11.95;33.94434;959.9116;;;;
2019/04/13 11:23:06;;;;;;;21;18.6;;;;;;;11.64;34.16211;959.8008;;;;
2019/04/13 11:26:16;;;;;;;23.1;19.1;;;;;;;11.4;35.5957;959.7921;;;;
2019/04/13 11:29:25;;;;;;;24.1;19.6;;;;;;;11.61;34.63281;959.8427;;;;
2019/04/13 11:32:35;;;;;;;24.1;19.5;;;;;;;11.45;35.94629;959.8702;;;;
2019/04/13 11:35:45;;;;;;;21.7;19.4;;;;;;;11;35.08008;959.8577;;;;
2019/04/13 11:38:55;;;;;;;22.3;19.6;;;;;;;10.63;36.9043;959.803;;;;
2019/04/13 11:47:23;;;;;;;23.4;19.5;;;;;;;10.62;35.19824;959.7393;;;;
2019/04/13 11:50:38;;;;;;;21.9;19.6;;;;;;;11.73;36.50098;959.8184;;;;
2019/04/13 11:53:49;;;;;;;21.8;18.9;;;;;;;12.04;33.91797;959.8158;;;;
2019/04/13 11:56:59;;;;;;;22.3;19;;;;;;;11.65;32.57129;959.7731;;;;
2019/04/13 12:00:28;;;;;;;23.4;20.7;;;;;;;11.46;33.81445;959.8036;;;;
2019/04/13 12:08:11;;;;;;;23.4;20.1;;;;;;;11.23;34.8916;959.7288;;;;
2019/04/13 12:11:40;;;;;;;23.7;20.4;;;;;;;10.8;34.91309;959.6844;;;;
2019/04/13 12:15:06;;;;;;;22.5;19.8;;;;;;;11.49;34.88965;959.7267;;;;
2019/04/13 12:19:02;;;;;;;24.8;20.4;;;;;;;12.75;32.41016;959.6406;;;;
2019/04/13 12:22:18;;;;;;;23.2;19.9;;;;;;;13.14;30.19434;959.6289;;;;
2019/04/13 12:25:29;;;;;;;22.3;19.8;;;;;;;12.48;34.32129;959.6359;;;;
2019/04/13 12:28:39;;;;;;;23.7;20.4;;;;;;;12.21;32.40527;959.613;;;;
2019/04/13 12:31:49;;;;;;;22.2;19.7;;;;;;;11.74;33.25781;959.5956;;;;
2019/04/13 12:34:59;;;;;;;23.4;20;;;;;;;11.81;33.05566;959.4977;;;;
2019/04/13 12:38:09;;;;;;;22.4;20;;;;;;;12.64;32.98145;959.537;;;;
2019/04/13 12:41:24;;;;;;;22.3;19.5;;;;;;;13.14;32.41699;959.4709;;;;
2019/04/13 12:44:34;;;;;;;24.3;19.6;;;;;;;12.55;31.94531;959.4977;;;;
2019/04/13 12:47:44;;;;;;;25.5;20.3;;;;;;;12.23;30.99707;959.4406;;;;
2019/04/13 12:50:54;;;;;;;22.6;20.1;;;;;;;11.41;34.73242;959.4903;;;;
2019/04/13 12:54:03;;;;;;;22.9;20.5;;;;;;;10.93;34.82129;959.5158;;;;
2019/04/13 12:57:13;;;;;;;23.7;21.1;;;;;;;10.97;35.37695;959.5212;;;;
2019/04/13 13:00:41;;;;;;;24.5;21.7;;;;;;;11.21;36.35352;959.5082;;;;
2019/04/13 13:03:51;;;;;;;25.3;22;;;;;;;11.09;35.29492;959.4059;;;;
2019/04/13 13:07:01;;;;;;;25.2;21.4;;;;;;;11.73;36.68555;959.4005;;;;
2019/04/13 13:10:11;;;;;;;25.3;21.1;;;;;;;13.61;31.17676;959.3424;;;;
2019/04/13 13:13:21;;;;;;;24.1;21.4;;;;;;;13.9;29.93262;959.2784;;;;
2019/04/13 13:16:31;;;;;;;24.2;21.2;;;;;;;15.75;27.9873;959.2286;;;;
2019/04/13 13:19:41;;;;;;;23.5;20.3;;;;;;;17.27;25.18652;959.147;;;;
2019/04/13 13:22:51;;;;;;;23;20.5;;;;;;;18.11;25.67969;959.1145;;;;
2019/04/13 13:26:01;;;;;;;23.3;20.4;;;;;;;18;22.92188;959.1099;;;;
2019/04/13 13:29:11;;;;;;;22.6;20.3;;;;;;;16.6;27.59863;959.1261;;;;
2019/04/13 13:32:21;;;;;;;21.9;19.6;;;;;;;17.23;24.35449;959.1202;;;;
2019/04/13 13:35:31;;;;;;;22.7;20.3;;;;;;;17.52;26.55664;959.149;;;;
2019/04/13 13:38:41;;;;;;;24.3;20.3;;;;;;;16.9;25.64355;959.1537;;;;
2019/04/13 13:41:51;;;;;;;22.7;20.3;;;;;;;15.15;27.56543;959.1703;;;;
2019/04/13 13:45:00;;;;;;;23.1;20.7;;;;;;;15.88;25.45605;959.0959;;;;
2019/04/13 13:48:10;;;;;;;22.5;20.1;;;;;;;15.95;27.12598;959.0137;;;;
2019/04/13 13:51:20;;;;;;;23;20.2;;;;;;;15.4;29.03613;959.0208;;;;
2019/04/13 13:54:30;;;;;;;23.2;20.3;;;;;;;14.12;27.59375;958.9979;;;;
2019/04/13 13:57:44;;;;;;;23.8;21.2;;;;;;;13.26;29.41504;958.9927;;;;
2019/04/13 14:04:22;;;;;;;23;20.5;;;;;;;13.07;31.43848;958.8328;;;;
2019/04/13 14:07:32;;;;;;;24.4;21.1;;;;;;;13.19;29.54883;958.8861;;;;
2019/04/13 14:10:42;;;;;;;23.7;19.7;;;;;;;12.48;30.98047;958.9036;;;;
2019/04/13 14:13:51;;;;;;;23.5;20.4;;;;;;;11.74;32.41602;958.838;;;;
2019/04/13 14:17:01;;;;;;;23.8;20.4;;;;;;;11.27;32.91113;958.9504;;;;
2019/04/13 14:20:11;;;;;;;22.5;20.1;;;;;;;11.46;33.72168;958.8898;;;;
2019/04/13 14:23:21;;;;;;;25;20.5;;;;;;;11.38;33.8418;958.8624;;;;
2019/04/13 14:26:31;;;;;;;24.2;20.5;;;;;;;11.34;35.11914;958.8488;;;;
2019/04/13 14:29:41;;;;;;;24;20.8;;;;;;;11.04;34.92188;958.8499;;;;
2019/04/13 14:32:51;;;;;;;25.5;22.1;;;;;;;10.88;34.30957;958.8381;;;;
2019/04/13 14:36:01;;;;;;;25.6;21.6;;;;;;;10.95;35.42188;958.8318;;;;
2019/04/13 14:39:11;;;;;;;23.6;20.8;;;;;;;11.08;34.02637;958.8415;;;;
2019/04/13 14:42:21;;;;;;;22.6;20.1;;;;;;;11.37;34.52148;958.7849;;;;
2019/04/13 14:45:31;;;;;;;25.8;21.9;;;;;;;11.19;35.2334;958.7756;;;;
2019/04/13 14:48:41;;;;;;;24.2;21.3;;;;;;;10.95;35.05273;958.8318;;;;
2019/04/13 14:51:51;;;;;;;25.8;21.1;;;;;;;11.04;35.15137;958.8108;;;;
2019/04/13 14:55:01;;;;;;;25.7;21.9;;;;;;;10.92;34.78516;958.8912;;;;
2019/04/13 14:58:11;;;;;;;25.7;22;;;;;;;11.03;35.99219;958.9026;;;;
2019/04/13 15:01:20;;;;;;;26.7;23.1;;;;;;;11.06;37.62012;958.8215;;;;
2019/04/13 15:04:30;;;;;;;25.2;22.4;;;;;;;11.12;37.08301;958.8167;;;;
2019/04/13 15:07:40;;;;;;;24.1;21.3;;;;;;;10.93;35.13184;958.8644;;;;
2019/04/13 15:10:50;;;;;;;25.3;22.3;;;;;;;10.83;36.66797;958.8335;;;;
2019/04/13 15:14:00;;;;;;;28.6;22.4;;;;;;;10.7;35.83887;958.7797;;;;
2019/04/13 15:17:10;;;;;;;25.7;22.3;;;;;;;10.73;36.60059;958.856;;;;
2019/04/13 15:20:20;;;;;;;27.7;23.5;;;;;;;10.53;37.67676;958.8956;;;;
2019/04/13 15:23:30;;;;;;;26.3;23.5;;;;;;;10.35;37.27051;958.8198;;;;
2019/04/13 15:26:40;;;;;;;25.6;22.4;;;;;;;10.69;36.58594;958.7551;;;;
2019/04/13 15:29:50;;;;;;;27.7;22.1;;;;;;;10.47;35.88867;958.74;;;;
2019/04/13 15:32:59;;;;;;;27.8;22.9;;;;;;;10.39;36.80176;958.7466;;;;
2019/04/13 15:36:09;;;;;;;27.1;22.9;;;;;;;10.2;36.72754;958.7156;;;;
2019/04/13 15:39:19;;;;;;;28.1;22.9;;;;;;;10.4;38.875;958.6848;;;;
2019/04/13 15:42:29;;;;;;;27.2;22.9;;;;;;;10.84;40.10059;958.7194;;;;
2019/04/13 15:45:39;;;;;;;24.4;21.2;;;;;;;11.15;36.93555;958.6704;;;;
2019/04/13 15:48:49;;;;;;;27.3;22.6;;;;;;;10.84;36.12598;958.6852;;;;
2019/04/13 15:51:59;;;;;;;26.4;22.8;;;;;;;10.42;36.70117;958.6404;;;;
2019/04/13 15:55:09;;;;;;;28.6;22.6;;;;;;;10.23;36.67285;958.7;;;;
2019/04/13 15:58:18;;;;;;;26;23.2;;;;;;;10.22;37.58105;958.7227;;;;
2019/04/13 16:01:28;;;;;;;29.2;23.2;;;;;;;10.24;38.60742;958.7509;;;;
2019/04/13 16:04:38;;;;;;;38.8;28.1;;;;;;;10.02;37.27539;958.757;;;;
2019/04/13 16:07:48;;;;;;;35.4;27.5;;;;;;;9.87;37.67676;958.8569;;;;
2019/04/13 16:11:11;;;;;;;33.1;25.7;;;;;;;9.94;39.09668;958.8591;;;;
2019/04/13 16:14:21;;;;;;;26.6;22.9;;;;;;;9.97;38.14551;958.9305;;;;
2019/04/13 16:17:31;;;;;;;28.3;22.5;;;;;;;9.82;37.5;958.9436;;;;
2019/04/13 16:20:41;;;;;;;27;22.7;;;;;;;9.75;38.18359;958.9842;;;;
2019/04/13 16:23:51;;;;;;;26.2;21.8;;;;;;;9.85;38.79004;959.0233;;;;
2019/04/13 16:27:01;;;;;;;26.1;21.7;;;;;;;9.9;38.94434;959.1277;;;;
2019/04/13 16:33:56;;;;;;;28;22.3;;;;;;;9.85;38.16895;959.2844;;;;
2019/04/13 16:37:21;;;;;;;27;22.9;;;;;;;9.63;42.91602;959.4498;;;;
2019/04/13 16:40:31;;;;;;;26.8;23.4;;;;;;;9.27;44.53223;959.4233;;;;
2019/04/13 16:43:43;;;;;;;27.8;23.6;;;;;;;9.31;45.25879;959.3903;;;;
2019/04/13 16:46:58;;;;;;;27.2;23.7;;;;;;;9.16;42.88086;959.4454;;;;
2019/04/13 16:50:15;;;;;;;28.6;23.9;;;;;;;9.09;45.97168;959.399;;;;
2019/04/13 16:57:03;;;;;;;28;23;;;;;;;9.43;45.20313;959.4191;;;;
2019/04/13 17:07:01;;;;;;;26.8;23.6;;;;;;;9.28;42.73145;959.488;;;;
2019/04/13 17:10:11;;;;;;;28.2;24;;;;;;;9.44;41.84082;959.5486;;;;
2019/04/13 17:13:21;;;;;;;28.3;23.6;;;;;;;9.29;44.56836;959.5386;;;;
2019/04/13 17:16:31;;;;;;;27.6;23;;;;;;;9.1;46.6709;959.5586;;;;
2019/04/13 17:23:23;;;;;;;28.5;24.3;;;;;;;8.87;45.14453;959.5039;;;;
2019/04/13 17:25:38;;;;;;;29;24.4;;;;;;;8.96;46.33496;959.5053;;;;
2019/04/13 17:27:43;;;;;;;30.3;25.1;;;;;;;8.68;47.29102;959.5276;;;;
2019/04/13 17:32:58;;;;;;;28.3;24.8;;;;;;;8.79;47.30176;959.5708;;;;
2019/04/13 17:34:49;;;;;;;32.3;25.4;;;;;;;8.74;46.31152;959.4926;;;;
2019/04/13 17:37:01;;;;;;;29.3;24.7;;;;;;;8.69;47.02734;959.5228;;;;
2019/04/13 17:39:26;;;;;;;29.4;24.6;;;;;;;8.67;47.65625;959.5458;;;;
2019/04/13 17:44:21;;;;;;;30.3;24.6;;;;;;;8.64;46.03613;959.5352;;;;
2019/04/13 17:47:50;;;;;;;29.3;24.7;;;;;;;8.69;45.36621;959.5139;;;;
2019/04/13 17:49:52;;;;;;;30.1;24.3;;;;;;;8.73;45.47363;959.558;;;;
2019/04/13 17:51:59;;;;;;;28.8;24.2;;;;;;;8.64;46.91992;959.5263;;;;
2019/04/13 17:54:07;;;;;;;32;24.8;;;;;;;8.57;46.96973;959.51;;;;
2019/04/13 17:56:22;;;;;;;29.1;25.7;;;;;;;8.53;47.09082;959.5611;;;;
2019/04/13 18:04:27;;;;;;;27.2;23.5;;;;;;;8.72;45.00195;959.6072;;;;
2019/04/13 18:06:19;;;;;;;27.4;23.2;;;;;;;8.77;45.37598;959.5722;;;;
2019/04/13 18:08:43;;;;;;;27.8;23.6;;;;;;;8.69;45.43457;959.6008;;;;
2019/04/13 18:11:22;;;;;;;29.4;24.4;;;;;;;8.55;45.55859;959.5726;;;;
2019/04/13 18:14:38;;;;;;;29.7;24.4;;;;;;;8.47;46.30566;959.5707;;;;
2019/04/13 18:15:50;;;;;;;27.8;23.8;;;;;;;8.52;46.88379;959.6572;;;;
2019/04/13 18:21:37;;;;;;;31;24.8;;;;;;;8.44;45.61426;959.6511;;;;
2019/04/13 18:21:42;;;;;;;28.1;24.8;;;;;;;8.37;45.61914;959.738;;;;
2019/04/13 18:24:08;;;;;;;29;24.3;;;;;;;8.39;45.74707;959.7803;;;;
2019/04/13 18:26:33;;;;;;;31.1;24;;;;;;;8.35;46.1084;959.7442;;;;
2019/04/13 18:28:58;;;;;;;26.7;23.5;;;;;;;8.36;47.65527;959.8385;;;;
2019/04/13 18:31:23;;;;;;;29.1;23.6;;;;;;;8.45;47.37988;959.7974;;;;
2019/04/13 18:33:48;;;;;;;26.2;21.9;;;;;;;8.52;46.26465;959.8699;;;;
2019/04/13 18:36:13;;;;;;;29;23;;;;;;;8.42;46.67871;959.8859;;;;
2019/04/13 18:38:39;;;;;;;27.5;23.8;;;;;;;8.35;46.34961;959.883;;;;
2019/04/13 18:41:04;;;;;;;28.5;23.8;;;;;;;8.31;46.01465;959.9849;;;;
2019/04/13 18:43:29;;;;;;;32.7;25.2;;;;;;;8.11;46.81641;959.9752;;;;
2019/04/13 18:45:54;;;;;;;27.9;24.4;;;;;;;8.13;47.76855;959.995;;;;
2019/04/13 18:48:19;;;;;;;30.3;24.5;;;;;;;8.09;47.22559;960.0151;;;;
2019/04/13 18:50:44;;;;;;;26.4;23.3;;;;;;;8.26;48.33203;960.0111;;;;
2019/04/13 18:53:09;;;;;;;28.9;23.9;;;;;;;8.45;45.10156;960.0525;;;;
2019/04/13 18:55:35;;;;;;;26;22.7;;;;;;;8.33;45.78613;960.1049;;;;
2019/04/13 18:58:00;;;;;;;27.3;23.5;;;;;;;8.18;46.32031;960.1981;;;;